Time;durP1;ratioP1;P1;durP2;ratioP2;P2;SDS_P1;SDS_P2;PMS_P1;PMS_P2;Temp;Humidity;BMP_temperature;BMP_pressure;BME280_temperature;BME280_humidity;BME280_pressure;Samples;Min_cycle;Max_cycle;Signal;HPM_P1;HPM_P2
2021/11/20 00:01:51;;;;;;;34.30;21.02;;;13.50;99.90;;;;;;4956316;28;20185;-77
2021/11/20 00:04:18;;;;;;;33.08;20.27;;;13.50;99.90;;;;;;4956546;28;20325;-77
2021/11/20 00:06:47;;;;;;;30.83;20.40;;;13.50;99.90;;;;;;4956349;28;20186;-77
2021/11/20 00:09:16;;;;;;;36.83;20.73;;;13.40;99.90;;;;;;4956113;28;20170;-82
2021/11/20 00:11:44;;;;;;;30.23;20.77;;;13.60;99.90;;;;;;4956057;28;20241;-76
2021/11/20 00:14:12;;;;;;;33.80;21.48;;;13.80;99.90;;;;;;4956045;28;20560;-76
2021/11/20 00:16:40;;;;;;;29.23;21.08;;;13.50;99.90;;;;;;4956903;28;20198;-79
2021/11/20 00:19:06;;;;;;;32.38;22.80;;;13.60;99.90;;;;;;4956393;28;20214;-80
2021/11/20 00:21:42;;;;;;;30.55;21.27;;;13.80;99.90;;;;;;4956082;28;20175;-76
2021/11/20 00:24:20;;;;;;;33.45;20.63;;;13.90;99.90;;;;;;4956045;28;20224;-77
2021/11/20 00:26:47;;;;;;;37.05;23.52;;;13.70;99.90;;;;;;4956085;28;20194;-82
2021/11/20 00:31:54;;;;;;;39.05;22.80;;;13.60;99.90;;;;;;4955946;28;20529;-79
2021/11/20 00:34:24;;;;;;;30.15;22.33;;;13.70;99.90;;;;;;4955838;28;20249;-79
2021/11/20 00:36:52;;;;;;;40.65;23.88;;;13.80;99.90;;;;;;4955486;28;20174;-76
2021/11/20 00:39:20;;;;;;;39.38;22.75;;;13.80;99.90;;;;;;4955909;28;20552;-76
2021/11/20 00:41:46;;;;;;;37.72;23.25;;;13.80;99.90;;;;;;4955694;28;20245;-76
2021/11/20 00:44:13;;;;;;;35.78;23.30;;;13.80;99.90;;;;;;4955667;28;20225;-76
2021/11/20 00:46:40;;;;;;;31.20;21.13;;;13.90;99.90;;;;;;4955433;28;20190;-82
2021/11/20 00:49:07;;;;;;;31.90;23.38;;;14.00;99.90;;;;;;4954354;28;20264;-77
2021/11/20 00:51:33;;;;;;;37.67;22.33;;;13.80;99.90;;;;;;4955640;28;20162;-77
2021/11/20 00:53:59;;;;;;;34.72;22.23;;;13.50;99.90;;;;;;4955491;28;20181;-82
2021/11/20 00:56:27;;;;;;;31.63;22.60;;;13.70;99.90;;;;;;4955628;28;20194;-78
2021/11/20 00:58:53;;;;;;;33.00;22.45;;;13.70;99.90;;;;;;4955348;28;20186;-77
2021/11/20 01:01:27;;;;;;;35.08;21.23;;;13.70;99.90;;;;;;4955138;28;20643;-77
2021/11/20 01:03:53;;;;;;;37.17;22.67;;;13.80;99.90;;;;;;4955316;28;20206;-77
2021/11/20 01:06:20;;;;;;;31.55;21.60;;;13.90;99.90;;;;;;4954968;28;20247;-77
2021/11/20 01:08:48;;;;;;;32.63;20.92;;;14.00;99.90;;;;;;4955343;28;20167;-77
2021/11/20 01:11:38;;;;;;;35.33;21.73;;;13.80;99.90;;;;;;4955286;28;20170;-77
2021/11/20 01:14:07;;;;;;;35.22;21.65;;;13.90;99.90;;;;;;4955342;28;20629;-77
2021/11/20 01:16:33;;;;;;;43.95;22.30;;;13.80;99.90;;;;;;4955136;28;20190;-78
2021/11/20 01:19:01;;;;;;;29.60;21.20;;;14.00;99.90;;;;;;4955247;28;20182;-81
2021/11/20 01:21:27;;;;;;;35.13;21.00;;;13.80;99.90;;;;;;4955214;28;20285;-78
2021/11/20 01:23:53;;;;;;;37.83;20.33;;;13.90;99.90;;;;;;4954216;28;20214;-77
2021/11/20 01:26:20;;;;;;;32.90;22.15;;;14.00;99.90;;;;;;4954840;28;20671;-82
2021/11/20 01:28:49;;;;;;;38.95;21.60;;;14.00;99.90;;;;;;4954892;28;20684;-79
2021/11/20 01:31:18;;;;;;;36.00;21.83;;;13.90;99.90;;;;;;4954966;28;20194;-77
2021/11/20 01:33:45;;;;;;;30.95;22.58;;;14.10;99.90;;;;;;4954871;28;20198;-77
2021/11/20 01:36:12;;;;;;;32.33;21.40;;;13.90;99.90;;;;;;4954520;28;20229;-77
2021/11/20 01:38:39;;;;;;;34.88;22.23;;;14.00;99.90;;;;;;4954794;28;20183;-77
2021/11/20 01:41:05;;;;;;;29.00;21.23;;;14.10;99.90;;;;;;4955111;28;20162;-77
2021/11/20 01:43:32;;;;;;;39.78;22.60;;;13.90;99.90;;;;;;4953448;28;20317;-77
2021/11/20 01:46:04;;;;;;;33.30;22.02;;;13.90;99.90;;;;;;4954410;28;20776;-78
2021/11/20 01:49:14;;;;;;;33.17;22.45;;;14.00;99.90;;;;;;4954480;28;20313;-78
2021/11/20 01:51:42;;;;;;;42.13;24.23;;;14.10;99.90;;;;;;4914166;29;20262;-78
2021/11/20 01:54:21;;;;;;;36.88;22.92;;;13.90;99.90;;;;;;4913936;29;20200;-77
2021/11/20 01:57:05;;;;;;;36.15;23.33;;;13.70;99.90;;;;;;4938728;28;20210;-78
2021/11/20 01:59:43;;;;;;;36.50;23.67;;;13.60;99.90;;;;;;4954108;28;20162;-79
2021/11/20 02:02:34;;;;;;;48.40;23.83;;;13.70;99.90;;;;;;4954365;28;20675;-78
2021/11/20 02:05:20;;;;;;;35.88;24.35;;;13.80;99.90;;;;;;4954276;28;20688;-77
2021/11/20 02:08:06;;;;;;;34.35;23.80;;;14.00;99.90;;;;;;4954464;28;20197;-77
2021/11/20 02:10:40;;;;;;;40.50;23.35;;;14.10;99.90;;;;;;4952723;28;20274;-77
2021/11/20 02:13:10;;;;;;;36.25;23.48;;;14.10;99.90;;;;;;4954337;28;20167;-77
2021/11/20 02:15:55;;;;;;;34.67;23.40;;;14.20;99.90;;;;;;4953934;28;20241;-77
2021/11/20 02:18:23;;;;;;;32.88;22.08;;;14.20;99.90;;;;;;4952782;28;20174;-79
2021/11/20 02:21:00;;;;;;;33.45;21.90;;;13.90;99.90;;;;;;4954044;28;20194;-79
2021/11/20 02:23:25;;;;;;;30.88;21.88;;;13.80;99.90;;;;;;4953971;28;20241;-79
2021/11/20 02:25:54;;;;;;;30.05;20.33;;;13.80;99.90;;;;;;4953929;28;20668;-79
2021/11/20 02:28:19;;;;;;;29.90;21.08;;;14.00;99.90;;;;;;4953866;28;20273;-78
2021/11/20 02:30:50;;;;;;;34.55;21.33;;;14.20;99.90;;;;;;4953950;28;20366;-76
2021/11/20 02:33:21;;;;;;;30.58;21.00;;;14.20;99.90;;;;;;4953861;28;20241;-78
2021/11/20 02:35:56;;;;;;;29.48;20.23;;;14.10;99.90;;;;;;4954299;28;20285;-77
2021/11/20 02:38:28;;;;;;;30.77;20.42;;;13.80;99.90;;;;;;4957824;28;20166;-77
2021/11/20 02:40:55;;;;;;;28.90;18.83;;;13.60;99.90;;;;;;4958058;28;20223;-77
2021/11/20 02:43:22;;;;;;;29.10;20.33;;;13.60;99.90;;;;;;4957461;28;20213;-77
2021/11/20 02:45:51;;;;;;;30.40;19.92;;;13.70;99.90;;;;;;4957642;28;20193;-77
2021/11/20 02:48:18;;;;;;;25.60;18.58;;;13.70;99.90;;;;;;4957552;28;20217;-78
2021/11/20 02:50:57;;;;;;;26.20;19.00;;;13.60;99.90;;;;;;4957236;28;20710;-77
2021/11/20 02:53:30;;;;;;;27.05;18.70;;;13.30;99.90;;;;;;4957439;28;20170;-77
2021/11/20 02:55:55;;;;;;;26.45;18.30;;;13.50;99.90;;;;;;4957436;28;20249;-78
2021/11/20 02:58:23;;;;;;;26.52;18.20;;;13.50;99.90;;;;;;4957600;28;20174;-77
2021/11/20 03:01:01;;;;;;;25.85;17.83;;;13.60;99.90;;;;;;4957579;28;20167;-78
2021/11/20 03:03:27;;;;;;;26.20;18.50;;;13.80;99.90;;;;;;4956196;28;20210;-77
2021/11/20 03:05:53;;;;;;;30.98;17.98;;;13.80;99.90;;;;;;4957215;28;20209;-77
2021/11/20 03:08:19;;;;;;;25.23;17.50;;;13.60;99.90;;;;;;4957319;28;20166;-77
2021/11/20 03:10:45;;;;;;;23.95;18.20;;;13.60;99.90;;;;;;4957185;28;20178;-79
2021/11/20 03:13:13;;;;;;;28.00;17.38;;;13.80;99.90;;;;;;4957358;28;20179;-78
2021/11/20 03:15:39;;;;;;;22.90;16.30;;;13.60;99.90;;;;;;4957357;28;20234;-78
2021/11/20 03:18:05;;;;;;;21.55;16.88;;;13.60;99.90;;;;;;4957401;28;20159;-77
2021/11/20 03:20:31;;;;;;;24.88;17.55;;;13.70;99.90;;;;;;4957117;28;20177;-77
2021/11/20 03:23:10;;;;;;;20.77;16.85;;;13.70;99.90;;;;;;4957436;28;20559;-76
2021/11/20 03:25:35;;;;;;;21.48;15.30;;;13.80;99.90;;;;;;4957060;28;20253;-78
2021/11/20 03:28:01;;;;;;;23.55;16.92;;;13.70;99.90;;;;;;4957096;29;20254;-78
2021/11/20 03:30:27;;;;;;;24.27;16.63;;;13.70;99.90;;;;;;4957393;28;20174;-77
2021/11/20 03:32:53;;;;;;;23.45;16.50;;;13.80;99.90;;;;;;4957137;28;20536;-77
2021/11/20 03:35:20;;;;;;;20.92;16.17;;;13.70;99.90;;;;;;4956245;28;20218;-76
2021/11/20 03:37:46;;;;;;;23.25;16.83;;;13.60;99.90;;;;;;4957153;28;20178;-76
2021/11/20 03:40:13;;;;;;;29.27;16.92;;;13.60;99.90;;;;;;4956984;28;20174;-77
2021/11/20 03:42:39;;;;;;;21.90;15.95;;;13.60;99.90;;;;;;4956867;28;20171;-77
2021/11/20 03:45:07;;;;;;;22.20;15.98;;;13.80;99.90;;;;;;4956711;28;20256;-77
2021/11/20 03:47:33;;;;;;;18.15;14.90;;;13.90;99.90;;;;;;4956119;28;20226;-77
2021/11/20 03:49:59;;;;;;;16.63;14.45;;;13.90;99.90;;;;;;4956636;28;20174;-76
2021/11/20 03:52:24;;;;;;;20.52;15.55;;;13.80;99.90;;;;;;4956719;28;20174;-79
2021/11/20 03:54:51;;;;;;;20.92;15.48;;;13.50;99.90;;;;;;4956462;28;20200;-78
2021/11/20 03:57:17;;;;;;;19.52;15.05;;;13.40;99.90;;;;;;4956436;28;20189;-78
2021/11/20 03:59:42;;;;;;;21.88;16.45;;;13.20;99.90;;;;;;4956606;28;20178;-77
2021/11/20 04:02:08;;;;;;;22.02;15.93;;;13.40;99.90;;;;;;4956572;28;20266;-77
2021/11/20 04:04:34;;;;;;;19.17;14.82;;;13.40;99.90;;;;;;4956082;28;20209;-77
2021/11/20 04:07:00;;;;;;;28.55;15.95;;;13.50;99.90;;;;;;4956416;28;20170;-77
2021/11/20 04:09:26;;;;;;;25.58;15.75;;;13.60;99.90;;;;;;4956425;28;20170;-77
2021/11/20 04:11:52;;;;;;;19.77;14.27;;;13.50;99.90;;;;;;4956256;28;20166;-78
2021/11/20 04:14:19;;;;;;;19.90;14.82;;;13.60;99.90;;;;;;4956178;28;20221;-79
2021/11/20 04:16:46;;;;;;;18.45;13.88;;;13.40;99.90;;;;;;4956262;28;20218;-78
2021/11/20 04:19:11;;;;;;;16.00;13.63;;;13.30;99.90;;;;;;4956194;28;20202;-78
2021/11/20 04:21:38;;;;;;;19.08;14.15;;;13.00;99.90;;;;;;4955961;28;20233;-76
2021/11/20 04:24:05;;;;;;;16.08;14.07;;;13.00;99.90;;;;;;4955877;28;20656;-78
2021/11/20 04:26:31;;;;;;;17.15;13.65;;;12.90;99.90;;;;;;4955731;28;20226;-77
2021/11/20 04:28:57;;;;;;;21.48;15.68;;;12.90;99.90;;;;;;4956164;28;20679;-77
2021/11/20 04:31:23;;;;;;;15.90;13.32;;;12.90;99.90;;;;;;4954748;28;20170;-77
2021/11/20 04:33:51;;;;;;;17.77;14.70;;;12.70;99.90;;;;;;4956112;28;20202;-77
2021/11/20 04:36:17;;;;;;;15.65;13.40;;;12.80;99.90;;;;;;4955756;28;20627;-79
2021/11/20 04:38:43;;;;;;;15.70;14.05;;;12.90;99.90;;;;;;4956420;28;20166;-78
2021/11/20 04:41:09;;;;;;;17.42;14.10;;;12.80;99.90;;;;;;4954661;28;20202;-76
2021/11/20 04:43:35;;;;;;;16.35;13.00;;;12.80;99.90;;;;;;4955842;28;20241;-76
2021/11/20 04:46:02;;;;;;;14.75;12.57;;;13.00;99.90;;;;;;4955508;28;20197;-76
2021/11/20 04:48:28;;;;;;;16.17;13.18;;;13.10;99.90;;;;;;4954493;28;20536;-77
2021/11/20 04:50:56;;;;;;;15.90;12.05;;;13.00;99.90;;;;;;4955595;28;20174;-77
2021/11/20 04:53:22;;;;;;;15.77;12.52;;;12.90;99.90;;;;;;4955761;28;20213;-76
2021/11/20 04:55:48;;;;;;;13.63;12.25;;;13.00;99.90;;;;;;4955404;28;20532;-76
2021/11/20 04:58:14;;;;;;;13.80;12.25;;;13.10;99.90;;;;;;4954428;28;20641;-76
2021/11/20 05:00:45;;;;;;;16.90;11.60;;;12.90;99.90;;;;;;4955213;28;20170;-76
2021/11/20 05:03:10;;;;;;;13.10;11.45;;;12.80;99.90;;;;;;4955223;28;20246;-76
2021/11/20 05:05:39;;;;;;;13.75;11.32;;;12.90;99.90;;;;;;4955277;28;20272;-78
2021/11/20 05:08:05;;;;;;;24.08;11.88;;;13.00;99.90;;;;;;4955566;28;20162;-77
2021/11/20 05:10:33;;;;;;;15.13;12.27;;;13.00;99.90;;;;;;4954755;28;20175;-79
2021/11/20 05:12:59;;;;;;;12.27;10.95;;;13.10;99.90;;;;;;4955229;28;20158;-78
2021/11/20 05:15:26;;;;;;;18.58;11.52;;;13.10;99.90;;;;;;4955221;28;20197;-78
2021/11/20 05:17:52;;;;;;;15.73;12.10;;;13.10;99.90;;;;;;4955784;28;20628;-78
2021/11/20 05:20:18;;;;;;;16.35;11.10;;;13.10;99.90;;;;;;4954901;28;20191;-77
2021/11/20 05:22:44;;;;;;;19.70;11.35;;;12.80;99.90;;;;;;4955107;28;20177;-78
2021/11/20 05:25:12;;;;;;;13.43;10.20;;;12.90;99.90;;;;;;4954778;28;20210;-83
2021/11/20 05:27:38;;;;;;;14.75;11.23;;;13.00;99.90;;;;;;4953704;28;20167;-77
2021/11/20 05:30:14;;;;;;;15.93;11.02;;;12.90;99.90;;;;;;4955033;28;20170;-77
2021/11/20 05:32:40;;;;;;;18.42;11.55;;;13.10;99.90;;;;;;4954941;28;20170;-78
2021/11/20 05:35:06;;;;;;;15.90;11.77;;;13.10;99.90;;;;;;4954976;28;20191;-78
2021/11/20 05:37:32;;;;;;;18.02;11.35;;;12.90;99.90;;;;;;4955112;28;20179;-78
2021/11/20 05:39:59;;;;;;;18.20;10.82;;;12.80;99.90;;;;;;4954785;28;20651;-78
2021/11/20 05:42:25;;;;;;;16.40;11.82;;;12.70;99.90;;;;;;4953544;28;20214;-78
2021/11/20 05:44:51;;;;;;;16.77;11.88;;;12.70;99.90;;;;;;4954668;28;20867;-78
2021/11/20 05:47:17;;;;;;;17.55;11.10;;;12.50;99.90;;;;;;4954726;28;20178;-78
2021/11/20 05:49:43;;;;;;;15.02;10.18;;;12.60;99.90;;;;;;4954552;28;20162;-78
2021/11/20 05:52:11;;;;;;;11.23;9.48;;;12.60;99.90;;;;;;4954547;28;20656;-78
2021/11/20 05:54:37;;;;;;;14.80;10.13;;;12.60;99.90;;;;;;4954448;28;20280;-78
2021/11/20 05:57:03;;;;;;;13.20;10.65;;;12.70;99.90;;;;;;4954578;28;20167;-80
2021/11/20 05:59:29;;;;;;;14.73;9.57;;;12.60;99.90;;;;;;4954289;28;20245;-78
2021/11/20 06:01:55;;;;;;;11.40;9.88;;;12.70;99.90;;;;;;4954320;28;20212;-78
2021/11/20 06:04:21;;;;;;;13.15;10.38;;;12.70;99.90;;;;;;4954244;28;20202;-78
2021/11/20 06:06:47;;;;;;;17.35;9.60;;;12.60;99.90;;;;;;4954509;28;20194;-78
2021/11/20 06:09:13;;;;;;;12.95;9.82;;;12.60;99.90;;;;;;4954443;28;20173;-79
2021/11/20 06:11:40;;;;;;;13.75;9.45;;;12.70;99.90;;;;;;4954659;28;20183;-79
2021/11/20 06:14:06;;;;;;;17.23;9.48;;;12.80;99.90;;;;;;4954136;28;20174;-79
2021/11/20 06:16:33;;;;;;;12.70;10.50;;;12.60;99.90;;;;;;4954271;28;20202;-78
2021/11/20 06:18:59;;;;;;;11.23;9.45;;;12.70;99.90;;;;;;4955219;28;20167;-78
2021/11/20 06:21:25;;;;;;;9.43;8.35;;;12.80;99.90;;;;;;4954292;28;20283;-77
2021/11/20 06:23:51;;;;;;;11.43;8.93;;;12.70;99.90;;;;;;4954140;28;20668;-78
2021/11/20 06:26:17;;;;;;;12.38;8.50;;;12.70;99.90;;;;;;4953067;28;20205;-78
2021/11/20 06:28:44;;;;;;;14.30;10.52;;;12.50;99.90;;;;;;4954271;28;20190;-77
2021/11/20 06:31:10;;;;;;;9.40;8.20;;;12.30;99.90;;;;;;4953919;28;20208;-77
2021/11/20 06:33:37;;;;;;;14.75;9.20;;;12.30;99.90;;;;;;4954074;28;20166;-77
2021/11/20 06:36:03;;;;;;;11.55;9.50;;;12.40;99.90;;;;;;4953892;28;20547;-78
2021/11/20 06:38:30;;;;;;;14.50;9.25;;;12.50;99.90;;;;;;4954196;28;20167;-78
2021/11/20 06:40:59;;;;;;;11.20;8.55;;;12.60;99.90;;;;;;4954086;28;20187;-80
2021/11/20 06:43:27;;;;;;;9.68;8.68;;;12.70;99.90;;;;;;4953910;28;20199;-77
2021/11/20 06:45:59;;;;;;;11.23;8.70;;;12.80;99.90;;;;;;4953611;28;20222;-77
2021/11/20 06:48:26;;;;;;;32.22;9.93;;;12.80;99.90;;;;;;4953871;28;20174;-78
2021/11/20 06:50:53;;;;;;;9.40;8.60;;;12.80;99.90;;;;;;4954111;28;20170;-77
2021/11/20 06:53:21;;;;;;;9.52;7.70;;;12.60;99.90;;;;;;4953854;28;20174;-77
2021/11/20 06:55:47;;;;;;;10.35;9.00;;;12.60;99.90;;;;;;4953729;28;20253;-78
2021/11/20 07:00:44;;;;;;;9.45;8.45;;;12.70;99.90;;;;;;4954185;29;20166;-78
2021/11/20 07:03:15;;;;;;;9.77;8.38;;;12.60;99.90;;;;;;4953815;28;20648;-77
2021/11/20 07:06:02;;;;;;;10.82;8.70;;;12.60;99.90;;;;;;4953984;28;20606;-78
2021/11/20 07:08:29;;;;;;;13.90;8.95;;;12.70;99.90;;;;;;4952475;28;20167;-77
2021/11/20 07:10:56;;;;;;;12.60;8.70;;;12.70;99.90;;;;;;4953508;28;20202;-78
2021/11/20 07:13:22;;;;;;;9.60;8.68;;;12.70;99.90;;;;;;4953530;28;20177;-77
2021/11/20 07:15:49;;;;;;;10.07;9.05;;;12.60;99.90;;;;;;4952468;28;20210;-77
2021/11/20 07:18:16;;;;;;;9.60;8.65;;;12.70;99.90;;;;;;4953904;28;20167;-77
2021/11/20 07:20:42;;;;;;;9.65;8.70;;;12.40;99.90;;;;;;4953895;28;20254;-77
2021/11/20 07:23:09;;;;;;;13.98;9.35;;;12.50;99.90;;;;;;4957079;28;20654;-78
2021/11/20 07:25:36;;;;;;;10.15;9.07;;;12.60;99.90;;;;;;4956859;28;20190;-78
2021/11/20 07:28:04;;;;;;;15.35;8.50;;;12.70;99.90;;;;;;4957129;28;20178;-78
2021/11/20 07:30:32;;;;;;;9.50;8.50;;;12.60;99.90;;;;;;4956923;28;20171;-78
2021/11/20 07:32:59;;;;;;;9.65;8.63;;;12.50;99.90;;;;;;4955429;28;20175;-78
2021/11/20 07:35:26;;;;;;;10.45;9.00;;;12.70;99.90;;;;;;4956534;28;20193;-78
2021/11/20 07:37:53;;;;;;;10.93;9.23;;;12.70;99.90;;;;;;4956608;28;20178;-79
2021/11/20 07:40:19;;;;;;;14.10;10.00;;;12.90;99.90;;;;;;4956406;28;20171;-79
2021/11/20 07:42:45;;;;;;;9.82;8.77;;;13.00;99.90;;;;;;4956415;28;20179;-81
2021/11/20 07:45:12;;;;;;;13.10;10.05;;;13.00;99.90;;;;;;4956707;28;20233;-79
2021/11/20 07:47:37;;;;;;;15.07;9.30;;;12.90;99.90;;;;;;4956916;28;20542;-79
2021/11/20 07:50:04;;;;;;;10.75;9.07;;;12.90;99.90;;;;;;4956462;28;20167;-77
2021/11/20 07:52:29;;;;;;;15.48;9.20;;;12.90;99.90;;;;;;4956588;28;20290;-78
2021/11/20 07:54:55;;;;;;;13.60;10.18;;;12.80;99.90;;;;;;4956421;28;20222;-77
2021/11/20 07:57:21;;;;;;;14.70;9.55;;;12.60;99.90;;;;;;4956935;28;20257;-77
2021/11/20 07:59:46;;;;;;;9.48;8.57;;;12.40;99.90;;;;;;4956512;28;20163;-80
2021/11/20 08:02:12;;;;;;;12.70;9.30;;;12.40;99.90;;;;;;4956512;28;20191;-80
2021/11/20 08:04:38;;;;;;;14.80;9.45;;;12.40;99.90;;;;;;4956343;28;20293;-78
2021/11/20 08:07:08;;;;;;;15.32;9.60;;;12.70;99.90;;;;;;4956350;28;20178;-79
2021/11/20 08:09:35;;;;;;;12.00;9.85;;;12.80;99.90;;;;;;4956346;28;20266;-77
2021/11/20 08:12:02;;;;;;;10.90;9.75;;;12.60;99.90;;;;;;4955897;28;20177;-78
2021/11/20 08:14:27;;;;;;;11.15;9.15;;;12.30;99.90;;;;;;4954983;28;20252;-79
2021/11/20 08:16:53;;;;;;;11.05;9.70;;;12.30;99.90;;;;;;4956522;28;20629;-77
2021/11/20 08:19:19;;;;;;;16.08;10.05;;;12.50;99.90;;;;;;4956188;28;20222;-78
2021/11/20 08:21:45;;;;;;;11.02;9.38;;;12.60;99.90;;;;;;4956146;28;20516;-78
2021/11/20 08:24:11;;;;;;;13.07;10.80;;;12.70;99.90;;;;;;4955879;28;20285;-85
2021/11/20 08:26:39;;;;;;;11.05;9.95;;;12.80;99.90;;;;;;4955676;28;20187;-79
2021/11/20 08:29:11;;;;;;;12.75;9.35;;;12.70;99.90;;;;;;4955787;28;20166;-79
2021/11/20 08:31:41;;;;;;;11.55;9.50;;;12.70;99.90;;;;;;4955904;28;20170;-79
2021/11/20 08:34:08;;;;;;;13.32;9.57;;;12.80;99.90;;;;;;4955870;28;20539;-80
2021/11/20 08:36:34;;;;;;;12.10;10.27;;;12.90;99.90;;;;;;4954624;29;20562;-77
2021/11/20 08:39:00;;;;;;;10.38;9.25;;;13.00;99.90;;;;;;4955842;28;20166;-81
2021/11/20 08:41:26;;;;;;;15.32;8.93;;;13.20;99.90;;;;;;4955901;28;20604;-81
2021/11/20 08:43:52;;;;;;;12.30;9.73;;;13.10;99.90;;;;;;4968683;28;20214;-80
2021/11/20 08:46:18;;;;;;;20.02;11.65;;;12.90;99.90;;;;;;4953953;28;20494;-79
2021/11/20 08:48:43;;;;;;;17.25;11.32;;;13.00;99.90;;;;;;4953026;28;20704;-80
2021/11/20 08:51:16;;;;;;;12.75;10.35;;;12.90;99.90;;;;;;4945321;28;20178;-80
2021/11/20 08:53:42;;;;;;;11.52;10.32;;;12.80;99.90;;;;;;4953918;28;20179;-80
2021/11/20 08:56:09;;;;;;;15.45;10.52;;;12.90;99.90;;;;;;4953364;28;20201;-84
2021/11/20 08:58:36;;;;;;;10.70;9.48;;;13.00;99.90;;;;;;4953896;28;20174;-77
2021/11/20 09:01:14;;;;;;;17.70;9.32;;;12.90;99.90;;;;;;4955475;28;20171;-77
2021/11/20 09:03:49;;;;;;;17.70;9.80;;;13.00;99.90;;;;;;4955357;28;20209;-78
2021/11/20 09:06:34;;;;;;;11.75;9.70;;;13.10;99.90;;;;;;4954999;28;20256;-77
2021/11/20 09:09:08;;;;;;;10.88;8.55;;;13.00;99.90;;;;;;4953689;28;20182;-78
2021/11/20 09:11:48;;;;;;;15.32;9.52;;;12.90;99.90;;;;;;4955260;28;20610;-77
2021/11/20 09:14:29;;;;;;;10.35;9.35;;;12.90;99.90;;;;;;4955310;28;20253;-77
2021/11/20 09:16:59;;;;;;;10.02;9.10;;;12.90;99.90;;;;;;4955228;28;20174;-81
2021/11/20 09:19:27;;;;;;;13.02;10.00;;;12.50;99.90;;;;;;4955071;28;20174;-77
2021/11/20 09:21:53;;;;;;;13.43;9.50;;;12.50;99.90;;;;;;4955275;28;20170;-78
2021/11/20 09:24:19;;;;;;;12.05;9.95;;;12.50;99.90;;;;;;4954976;28;20229;-80
2021/11/20 09:26:44;;;;;;;10.05;9.00;;;12.40;99.90;;;;;;4954595;28;20676;-79
2021/11/20 09:29:13;;;;;;;12.95;10.63;;;12.40;99.90;;;;;;4954922;28;20175;-77
2021/11/20 09:31:41;;;;;;;17.77;10.57;;;12.60;99.90;;;;;;4954490;28;20183;-77
2021/11/20 09:34:08;;;;;;;13.30;10.60;;;12.60;99.90;;;;;;4955006;28;20234;-78
2021/11/20 09:36:35;;;;;;;12.90;9.05;;;12.50;99.90;;;;;;4955074;28;20198;-78
2021/11/20 09:39:02;;;;;;;11.82;10.23;;;12.30;99.90;;;;;;4954748;28;20230;-78
2021/11/20 09:41:50;;;;;;;13.70;9.45;;;12.30;99.90;;;;;;4954724;28;20163;-78
2021/11/20 09:44:17;;;;;;;11.75;9.85;;;12.50;99.90;;;;;;4954368;28;20214;-78
2021/11/20 09:46:48;;;;;;;12.55;9.55;;;12.60;99.90;;;;;;4954614;28;20218;-78
2021/11/20 09:49:38;;;;;;;12.00;9.70;;;12.70;99.90;;;;;;4954605;28;20179;-85
2021/11/20 09:52:05;;;;;;;17.92;10.00;;;12.60;99.90;;;;;;4954699;28;20175;-78
2021/11/20 09:54:36;;;;;;;10.82;9.27;;;12.70;99.90;;;;;;4954469;28;20174;-78
2021/11/20 09:57:08;;;;;;;13.35;10.57;;;12.70;99.90;;;;;;4954512;28;20181;-77
2021/11/20 09:59:42;;;;;;;12.18;9.68;;;12.60;99.90;;;;;;4954400;28;20167;-78
2021/11/20 10:02:10;;;;;;;11.23;10.10;;;12.60;99.90;;;;;;4954454;28;20283;-79
2021/11/20 10:04:51;;;;;;;16.90;11.30;;;12.70;99.90;;;;;;4952750;28;20210;-77
2021/11/20 10:07:27;;;;;;;12.80;8.57;;;12.80;99.90;;;;;;4954383;28;20688;-77
2021/11/20 10:10:18;;;;;;;12.75;10.43;;;12.60;99.90;;;;;;4952884;28;20170;-78
2021/11/20 10:13:01;;;;;;;11.10;8.40;;;12.80;99.90;;;;;;4942760;28;20186;-77
2021/11/20 10:15:34;;;;;;;13.70;9.20;;;12.60;99.90;;;;;;4954423;28;20198;-77
2021/11/20 10:18:38;;;;;;;9.80;8.80;;;12.60;99.90;;;;;;4954178;28;20174;-77
2021/11/20 10:21:32;;;;;;;12.70;9.32;;;12.70;99.90;;;;;;4953789;28;20182;-77
2021/11/20 10:24:16;;;;;;;11.93;8.48;;;12.50;99.90;;;;;;4954289;28;20214;-77
2021/11/20 10:27:03;;;;;;;9.60;8.30;;;12.50;99.90;;;;;;4953567;28;20199;-77
2021/11/20 10:29:47;;;;;;;8.38;7.57;;;12.70;99.90;;;;;;4953945;28;20257;-77
2021/11/20 10:32:13;;;;;;;14.23;8.85;;;12.60;99.90;;;;;;4954329;28;20621;-79
2021/11/20 10:34:55;;;;;;;9.38;8.48;;;12.60;99.90;;;;;;4953961;28;20167;-78
2021/11/20 10:37:36;;;;;;;8.90;7.93;;;12.60;99.90;;;;;;4953992;28;20179;-78
2021/11/20 10:40:27;;;;;;;10.38;7.90;;;12.50;99.90;;;;;;4954013;28;20169;-78
2021/11/20 10:43:01;;;;;;;10.98;8.43;;;12.60;99.90;;;;;;4953129;28;20728;-80
2021/11/20 10:45:38;;;;;;;13.38;8.80;;;12.50;99.90;;;;;;4953695;28;20209;-79
2021/11/20 10:48:15;;;;;;;9.50;8.60;;;12.40;99.90;;;;;;4953613;28;20179;-78
2021/11/20 10:50:45;;;;;;;10.35;7.70;;;12.30;99.90;;;;;;4953697;28;20170;-79
2021/11/20 10:53:23;;;;;;;9.50;8.50;;;12.20;99.90;;;;;;4953871;28;20683;-77
2021/11/20 10:56:31;;;;;;;9.15;8.07;;;12.10;99.90;;;;;;4953419;28;20210;-78
2021/11/20 10:59:06;;;;;;;9.27;8.35;;;12.30;99.90;;;;;;4957537;28;20680;-79
2021/11/20 11:01:46;;;;;;;17.23;8.20;;;12.10;99.90;;;;;;4957730;28;20178;-78
2021/11/20 11:04:43;;;;;;;10.23;8.05;;;12.10;99.90;;;;;;4957497;28;20288;-77
2021/11/20 11:07:20;;;;;;;10.88;8.93;;;12.20;99.90;;;;;;4957370;28;20253;-84
2021/11/20 11:09:49;;;;;;;8.52;7.82;;;12.40;99.90;;;;;;4957715;28;20193;-84
2021/11/20 11:12:21;;;;;;;9.07;8.05;;;12.60;99.90;;;;;;4957514;28;20270;-77
2021/11/20 11:15:04;;;;;;;8.90;8.00;;;12.60;99.90;;;;;;4956766;28;20186;-83
2021/11/20 11:17:39;;;;;;;9.75;8.63;;;12.50;99.90;;;;;;4957301;28;20283;-78
2021/11/20 11:20:11;;;;;;;12.80;9.75;;;12.70;99.90;;;;;;4957244;28;20176;-84
2021/11/20 11:22:43;;;;;;;11.98;10.18;;;12.70;99.90;;;;;;4956973;28;20234;-79
2021/11/20 11:25:17;;;;;;;11.73;10.48;;;12.60;99.90;;;;;;4956490;28;20234;-79
2021/11/20 11:28:04;;;;;;;12.98;10.65;;;12.50;99.90;;;;;;4956825;28;20177;-79
2021/11/20 11:30:38;;;;;;;15.45;11.10;;;12.20;99.90;;;;;;4956458;28;20524;-79
2021/11/20 11:33:04;;;;;;;18.00;11.60;;;12.30;99.90;;;;;;4956642;28;20171;-79
2021/11/20 11:35:37;;;;;;;12.88;10.77;;;12.40;99.90;;;;;;4956303;28;20194;-78
2021/11/20 11:38:13;;;;;;;16.27;11.35;;;12.50;99.90;;;;;;4956235;28;20273;-80
2021/11/20 11:40:47;;;;;;;15.35;10.88;;;12.60;99.90;;;;;;4956713;28;20174;-78
2021/11/20 11:43:44;;;;;;;13.20;11.55;;;12.50;99.90;;;;;;4956831;28;20180;-79
2021/11/20 11:46:19;;;;;;;14.88;10.25;;;12.30;99.90;;;;;;4955033;28;20676;-78
2021/11/20 11:48:56;;;;;;;13.38;10.55;;;12.10;99.90;;;;;;4956560;28;20174;-79
2021/11/20 11:51:57;;;;;;;13.40;10.95;;;12.10;99.90;;;;;;4956135;28;20659;-78
2021/11/20 11:54:44;;;;;;;11.40;10.23;;;12.10;99.90;;;;;;4956395;28;20182;-78
2021/11/20 11:57:12;;;;;;;17.35;11.90;;;12.00;99.90;;;;;;4956330;28;20186;-79
2021/11/20 11:59:56;;;;;;;13.35;10.70;;;11.80;99.90;;;;;;4954675;28;20171;-77
2021/11/20 12:02:24;;;;;;;16.52;12.77;;;11.60;99.90;;;;;;4955411;28;20588;-78
2021/11/20 12:04:53;;;;;;;39.78;22.33;;;11.60;99.90;;;;;;4956165;28;20206;-78
2021/11/20 12:07:25;;;;;;;27.77;17.15;;;11.80;99.90;;;;;;4956340;28;20198;-78
2021/11/20 12:10:13;;;;;;;13.82;11.57;;;11.90;99.90;;;;;;4957213;28;20170;-79
2021/11/20 12:12:59;;;;;;;15.32;11.07;;;11.90;99.90;;;;;;4946606;28;20274;-78
2021/11/20 12:15:38;;;;;;;11.95;10.05;;;11.90;99.90;;;;;;4955893;28;20691;-77
2021/11/20 12:18:29;;;;;;;13.38;9.73;;;12.00;99.90;;;;;;4954626;28;20478;-81
2021/11/20 12:21:20;;;;;;;11.48;10.30;;;11.90;99.90;;;;;;4954889;28;20182;-77
2021/11/20 12:23:54;;;;;;;16.25;8.48;;;12.00;99.90;;;;;;4956002;28;20213;-78
2021/11/20 12:26:26;;;;;;;12.15;9.98;;;12.10;99.90;;;;;;4955671;28;20179;-77
2021/11/20 12:28:59;;;;;;;13.68;11.32;;;12.10;99.90;;;;;;4955808;28;20182;-77
2021/11/20 12:31:43;;;;;;;13.00;9.60;;;12.10;99.90;;;;;;4955778;28;20181;-78
2021/11/20 12:34:17;;;;;;;17.48;10.93;;;12.30;99.90;;;;;;4956100;28;20202;-77
2021/11/20 12:37:10;;;;;;;12.73;10.07;;;12.30;99.90;;;;;;4955497;28;20236;-78
2021/11/20 12:40:03;;;;;;;13.10;10.07;;;12.30;99.90;;;;;;4955704;28;20313;-80
2021/11/20 12:42:41;;;;;;;15.20;10.60;;;11.90;99.90;;;;;;4954073;28;20263;-77
2021/11/20 12:45:37;;;;;;;26.40;12.38;;;11.80;99.90;;;;;;4955496;28;20237;-77
2021/11/20 12:48:18;;;;;;;14.82;11.43;;;12.10;99.90;;;;;;4955509;28;20175;-78
2021/11/20 12:50:49;;;;;;;27.05;12.32;;;12.30;99.90;;;;;;4954713;28;20637;-77
2021/11/20 12:53:15;;;;;;;18.98;11.60;;;12.50;99.90;;;;;;4955329;28;20257;-78
2021/11/20 12:56:00;;;;;;;19.55;12.38;;;12.40;99.90;;;;;;4958550;28;20276;-79